Time;durP1;ratioP1;P1;durP2;ratioP2;P2;SDS_P1;SDS_P2;PMS_P1;PMS_P2;Temp;Humidity;BMP_temperature;BMP_pressure;BME280_temperature;BME280_humidity;BME280_pressure;Samples;Min_cycle;Max_cycle;Signal;HPM_P1;HPM_P2
2022/03/08 00:00:37;;;;;;;16.75;9.43;;;0.30;91.90;;;;;;5013386;28;20057;-46
2022/03/08 00:03:03;;;;;;;15.15;9.55;;;0.30;91.80;;;;;;4987733;28;20109;-43
2022/03/08 00:05:29;;;;;;;14.80;9.85;;;0.30;92.00;;;;;;4986832;28;20034;-41
2022/03/08 00:07:55;;;;;;;15.60;8.75;;;0.20;92.10;;;;;;4976266;28;20041;-45
2022/03/08 00:10:22;;;;;;;14.60;9.50;;;0.20;92.10;;;;;;4975953;28;20149;-45
2022/03/08 00:12:48;;;;;;;13.40;9.38;;;0.20;92.20;;;;;;4976150;28;20025;-42
2022/03/08 00:15:17;;;;;;;18.55;9.20;;;0.20;92.30;;;;;;4976354;28;20062;-43
2022/03/08 00:17:43;;;;;;;14.63;9.48;;;0.20;92.60;;;;;;4976558;28;20490;-40
2022/03/08 00:20:10;;;;;;;11.82;8.82;;;0.10;92.80;;;;;;4978831;28;20034;-44
2022/03/08 00:22:36;;;;;;;15.10;9.40;;;0.10;92.90;;;;;;4996135;28;20544;-44
2022/03/08 00:25:06;;;;;;;18.20;10.18;;;0.00;93.30;;;;;;4994107;28;20141;-41
2022/03/08 00:27:32;;;;;;;15.32;9.18;;;0.00;93.50;;;;;;5010797;22;20050;-44
2022/03/08 00:29:58;;;;;;;16.30;8.55;;;-0.10;93.60;;;;;;4975822;28;20022;-45
2022/03/08 00:32:24;;;;;;;15.40;9.10;;;-0.20;94.00;;;;;;4975960;28;20046;-48
2022/03/08 00:34:50;;;;;;;12.23;8.65;;;-0.20;94.20;;;;;;4975731;28;20086;-44
2022/03/08 00:37:15;;;;;;;15.77;10.13;;;-0.20;94.40;;;;;;4995187;28;20490;-51
2022/03/08 00:39:41;;;;;;;15.98;8.63;;;-0.20;94.50;;;;;;4995126;28;20025;-44
2022/03/08 00:42:11;;;;;;;15.23;9.52;;;-0.20;94.40;;;;;;4995319;28;20038;-45
2022/03/08 00:44:38;;;;;;;20.52;9.18;;;-0.20;94.50;;;;;;4991689;28;20031;-44
2022/03/08 00:47:04;;;;;;;12.98;9.30;;;-0.30;94.70;;;;;;4995016;28;20388;-43
2022/03/08 00:49:30;;;;;;;11.68;8.50;;;-0.20;94.60;;;;;;4995363;28;20393;-46
2022/03/08 00:51:55;;;;;;;14.50;9.38;;;-0.30;94.60;;;;;;4994619;28;20101;-46
2022/03/08 00:54:21;;;;;;;12.43;8.57;;;-0.20;94.50;;;;;;4994858;28;20034;-45
2022/03/08 00:56:46;;;;;;;12.52;8.30;;;-0.10;94.50;;;;;;4994824;28;20178;-46
2022/03/08 00:59:12;;;;;;;11.98;8.93;;;-0.10;94.50;;;;;;4978233;28;20494;-46
2022/03/08 01:01:37;;;;;;;12.55;8.57;;;-0.10;94.50;;;;;;4974195;28;20077;-43
2022/03/08 01:04:03;;;;;;;13.88;9.38;;;0.00;94.60;;;;;;4975028;28;20106;-43
2022/03/08 01:06:28;;;;;;;17.80;10.13;;;0.10;94.50;;;;;;4973870;28;20027;-46
2022/03/08 01:08:54;;;;;;;13.35;9.80;;;0.10;94.50;;;;;;4975189;28;20026;-45
2022/03/08 01:11:20;;;;;;;14.20;9.27;;;0.10;94.60;;;;;;4987330;28;20026;-46
2022/03/08 01:13:45;;;;;;;18.48;9.82;;;0.10;94.60;;;;;;4993067;28;20034;-45
2022/03/08 01:16:11;;;;;;;13.93;9.88;;;0.10;94.60;;;;;;4994553;28;20026;-47
2022/03/08 01:18:37;;;;;;;17.55;9.98;;;0.20;94.70;;;;;;4994394;28;20018;-42
2022/03/08 01:21:02;;;;;;;13.80;9.02;;;0.20;94.60;;;;;;4994477;28;20053;-45
2022/03/08 01:23:28;;;;;;;17.73;9.70;;;0.10;94.90;;;;;;4992839;28;20030;-40
2022/03/08 01:25:53;;;;;;;15.43;9.32;;;0.10;95.00;;;;;;4983580;28;20030;-44
2022/03/08 01:28:19;;;;;;;12.45;8.75;;;0.20;95.00;;;;;;4973471;28;20085;-44
2022/03/08 01:30:44;;;;;;;13.27;9.98;;;0.10;95.10;;;;;;4974707;28;20106;-44
2022/03/08 01:33:10;;;;;;;13.43;8.90;;;0.10;95.20;;;;;;4974468;28;20030;-48
2022/03/08 01:35:35;;;;;;;11.57;9.07;;;0.10;95.30;;;;;;4974567;28;20034;-47
2022/03/08 01:38:01;;;;;;;12.02;8.75;;;0.00;95.50;;;;;;4977133;28;20085;-47
2022/03/08 01:40:27;;;;;;;10.70;8.65;;;0.00;95.70;;;;;;4992736;28;20027;-44
2022/03/08 01:42:52;;;;;;;12.95;9.48;;;0.00;95.70;;;;;;4992428;28;20026;-48
2022/03/08 01:45:22;;;;;;;12.20;9.15;;;0.00;95.80;;;;;;4993966;28;20018;-47
2022/03/08 01:47:48;;;;;;;12.23;9.05;;;0.00;95.90;;;;;;4993768;28;20030;-45
2022/03/08 01:50:14;;;;;;;15.77;8.75;;;0.00;96.20;;;;;;4991945;28;20084;-44
2022/03/08 01:52:40;;;;;;;13.27;8.52;;;-0.10;96.20;;;;;;4993928;28;20023;-41
2022/03/08 01:55:08;;;;;;;11.63;8.60;;;0.00;96.20;;;;;;4993630;28;20064;-46
2022/03/08 01:57:34;;;;;;;10.63;8.52;;;0.00;96.50;;;;;;4992743;28;20034;-47
2022/03/08 01:59:59;;;;;;;13.18;8.57;;;0.10;96.30;;;;;;4993781;28;20023;-42
2022/03/08 02:02:25;;;;;;;11.80;7.70;;;0.10;96.20;;;;;;4993241;28;20322;-48
2022/03/08 02:04:52;;;;;;;12.73;8.60;;;0.10;96.20;;;;;;4979070;28;20030;-43
2022/03/08 02:07:18;;;;;;;11.52;8.10;;;0.00;96.40;;;;;;4974305;28;20078;-46
2022/03/08 02:09:44;;;;;;;11.00;7.90;;;0.00;96.50;;;;;;4974009;28;20487;-49
2022/03/08 02:12:10;;;;;;;12.68;8.00;;;0.00;96.40;;;;;;4993358;28;20026;-44
2022/03/08 02:14:36;;;;;;;27.42;8.65;;;0.10;96.60;;;;;;4993220;28;20092;-49
2022/03/08 02:17:03;;;;;;;13.93;8.13;;;0.10;96.50;;;;;;4993428;28;20022;-44
2022/03/08 02:19:28;;;;;;;15.30;8.18;;;0.10;96.50;;;;;;4991933;28;20034;-46
2022/03/08 02:21:55;;;;;;;12.70;8.32;;;0.10;96.60;;;;;;4993465;28;20031;-48
2022/03/08 02:24:20;;;;;;;13.00;9.07;;;0.00;96.60;;;;;;4993112;28;20019;-46
2022/03/08 02:26:46;;;;;;;12.13;8.13;;;-0.10;96.90;;;;;;4974609;28;20118;-46
2022/03/08 02:29:12;;;;;;;10.00;8.00;;;-0.10;97.20;;;;;;4974682;28;20038;-49
2022/03/08 02:31:38;;;;;;;17.13;8.05;;;-0.10;97.30;;;;;;4974273;28;20027;-44
2022/03/08 02:34:04;;;;;;;11.95;8.27;;;-0.10;97.40;;;;;;4973429;28;20019;-43
2022/03/08 02:36:29;;;;;;;10.55;7.60;;;-0.20;97.50;;;;;;4973890;28;20027;-48
2022/03/08 02:38:55;;;;;;;18.13;8.63;;;-0.20;97.60;;;;;;4987591;28;20149;-42
2022/03/08 02:41:20;;;;;;;12.55;8.65;;;-0.30;97.70;;;;;;4992976;28;20029;-45
2022/03/08 02:43:46;;;;;;;14.45;8.80;;;-0.30;97.90;;;;;;4992838;28;20446;-43
2022/03/08 02:46:12;;;;;;;14.82;10.00;;;-0.40;98.20;;;;;;4993052;28;20486;-47
2022/03/08 02:48:37;;;;;;;13.15;8.93;;;-0.40;98.30;;;;;;4992559;28;20034;-42
2022/03/08 02:51:03;;;;;;;13.20;8.68;;;-0.50;98.50;;;;;;4992829;28;20031;-43
2022/03/08 02:53:30;;;;;;;12.30;9.30;;;-0.60;98.70;;;;;;4979944;28;20451;-46
2022/03/08 02:55:55;;;;;;;11.20;8.07;;;-0.50;98.80;;;;;;4972068;28;20415;-39
2022/03/08 02:58:21;;;;;;;10.35;8.07;;;-0.60;98.80;;;;;;4973258;28;20030;-43
2022/03/08 03:00:46;;;;;;;10.88;8.35;;;-0.70;99.10;;;;;;4973430;28;20030;-46
2022/03/08 03:03:12;;;;;;;13.75;8.55;;;-0.60;99.20;;;;;;4972940;28;20038;-46
2022/03/08 03:05:38;;;;;;;12.60;8.27;;;-0.60;99.20;;;;;;4976903;28;20031;-43
2022/03/08 03:08:05;;;;;;;13.27;8.82;;;-0.60;99.10;;;;;;4992455;28;20054;-50
2022/03/08 03:10:31;;;;;;;12.50;7.90;;;-0.70;99.30;;;;;;4992899;28;20037;-43
2022/03/08 03:12:58;;;;;;;13.27;8.50;;;-0.80;99.60;;;;;;4993780;28;20482;-40
2022/03/08 03:15:25;;;;;;;13.55;8.52;;;-0.90;99.90;;;;;;4991532;28;20402;-43
2022/03/08 03:17:51;;;;;;;13.48;7.63;;;-1.00;99.90;;;;;;4994774;28;20545;-43
2022/03/08 03:20:19;;;;;;;15.00;8.43;;;-1.00;99.90;;;;;;4990388;28;20034;-43
2022/03/08 03:22:45;;;;;;;13.65;8.13;;;-1.00;99.90;;;;;;4973590;28;20027;-41
2022/03/08 03:25:12;;;;;;;10.77;7.78;;;-1.00;99.90;;;;;;4973969;28;20049;-40
2022/03/08 03:27:38;;;;;;;10.90;8.23;;;-1.00;99.90;;;;;;4974314;28;20410;-44
2022/03/08 03:30:06;;;;;;;13.13;7.95;;;-0.90;99.90;;;;;;4973469;28;20022;-48
2022/03/08 03:32:32;;;;;;;13.13;9.15;;;-0.90;99.90;;;;;;4971618;28;20065;-49
2022/03/08 03:34:58;;;;;;;14.20;8.23;;;-0.90;99.90;;;;;;4989237;28;20042;-40
2022/03/08 03:37:24;;;;;;;14.02;8.77;;;-1.00;99.90;;;;;;4992235;28;20077;-48
2022/03/08 03:39:49;;;;;;;14.75;8.50;;;-1.00;99.90;;;;;;4992754;28;20018;-43
2022/03/08 03:42:15;;;;;;;18.85;8.38;;;-1.00;99.90;;;;;;4992277;28;20023;-48
2022/03/08 03:44:41;;;;;;;9.77;7.70;;;-1.00;99.90;;;;;;4990759;28;20463;-46
2022/03/08 03:47:06;;;;;;;21.75;11.15;;;-1.00;99.90;;;;;;4992058;28;20034;-44
2022/03/08 03:49:32;;;;;;;15.23;8.60;;;-1.00;99.90;;;;;;4990714;28;20030;-46
2022/03/08 03:51:57;;;;;;;11.27;8.13;;;-1.00;99.90;;;;;;4993354;28;20049;-43
2022/03/08 03:54:23;;;;;;;17.05;8.80;;;-1.00;99.90;;;;;;4993635;28;20465;-44
2022/03/08 03:56:49;;;;;;;17.45;8.85;;;-0.90;99.90;;;;;;4993990;28;20049;-40
2022/03/08 03:59:15;;;;;;;12.57;8.40;;;-1.00;99.90;;;;;;4992915;28;20057;-44
2022/03/08 04:01:41;;;;;;;10.43;7.65;;;-1.00;99.90;;;;;;4984938;28;20031;-40
2022/03/08 04:04:07;;;;;;;16.88;8.05;;;-0.90;99.90;;;;;;4974122;28;20027;-44
2022/03/08 04:06:32;;;;;;;11.18;8.18;;;-0.90;99.90;;;;;;4971618;28;20031;-47
2022/03/08 04:08:59;;;;;;;13.48;8.27;;;-0.90;99.90;;;;;;4972738;28;20027;-47
2022/03/08 04:11:24;;;;;;;11.70;8.20;;;-0.90;99.90;;;;;;4972557;28;20023;-46
2022/03/08 04:13:50;;;;;;;18.80;9.00;;;-0.90;99.90;;;;;;4972749;28;20046;-45
2022/03/08 04:16:15;;;;;;;14.05;8.52;;;-0.90;99.90;;;;;;4987855;28;20026;-43
2022/03/08 04:18:41;;;;;;;15.48;9.20;;;-0.90;99.90;;;;;;4991511;28;20118;-44
2022/03/08 04:21:06;;;;;;;11.77;7.35;;;-1.00;99.90;;;;;;4991380;28;20434;-45
2022/03/08 04:23:32;;;;;;;12.65;9.32;;;-1.00;99.90;;;;;;4992840;28;20597;-43
2022/03/08 04:25:57;;;;;;;12.38;8.30;;;-1.00;99.90;;;;;;4993242;28;20034;-43
2022/03/08 04:28:23;;;;;;;13.88;8.13;;;-1.00;99.90;;;;;;4994789;28;20026;-46
2022/03/08 04:30:48;;;;;;;12.43;8.73;;;-1.10;99.90;;;;;;4978361;28;20035;-44
2022/03/08 04:33:14;;;;;;;10.80;7.93;;;-1.10;99.90;;;;;;4976556;28;20029;-45
2022/03/08 04:35:39;;;;;;;14.65;9.15;;;-1.20;99.90;;;;;;4989610;28;20054;-41
2022/03/08 04:38:05;;;;;;;12.48;7.75;;;-1.20;99.90;;;;;;4995390;28;20093;-43
2022/03/08 04:40:31;;;;;;;16.25;7.80;;;-1.20;99.90;;;;;;4995264;28;20026;-45
2022/03/08 04:42:56;;;;;;;14.60;8.65;;;-1.20;99.90;;;;;;4995128;28;20027;-39
2022/03/08 04:45:22;;;;;;;17.67;8.40;;;-1.20;99.90;;;;;;4994939;28;20026;-44
2022/03/08 04:47:48;;;;;;;11.98;7.97;;;-1.20;99.90;;;;;;4993865;28;20080;-48
2022/03/08 04:50:16;;;;;;;11.57;7.50;;;-1.20;99.90;;;;;;4995102;28;20108;-46
2022/03/08 04:52:46;;;;;;;12.43;8.73;;;-1.20;99.90;;;;;;4994401;28;20076;-42
2022/03/08 04:55:12;;;;;;;10.27;7.63;;;-1.20;99.90;;;;;;4994727;28;20383;-42
2022/03/08 04:57:37;;;;;;;11.88;7.88;;;-1.20;99.90;;;;;;4993240;28;20026;-45
2022/03/08 05:00:05;;;;;;;13.95;8.60;;;-1.10;99.90;;;;;;4994691;28;20033;-44
2022/03/08 05:02:31;;;;;;;11.73;7.35;;;-1.10;99.90;;;;;;4994831;28;20069;-44
2022/03/08 05:04:57;;;;;;;10.05;7.40;;;-1.10;99.90;;;;;;4993491;28;20124;-40
2022/03/08 05:07:22;;;;;;;11.02;8.30;;;-1.10;99.90;;;;;;4994797;28;20018;-46
2022/03/08 05:09:48;;;;;;;9.55;7.57;;;-1.10;99.90;;;;;;4993391;28;20022;-44
2022/03/08 05:12:14;;;;;;;12.30;7.72;;;-1.10;99.90;;;;;;4986396;28;20043;-44
2022/03/08 05:14:40;;;;;;;12.00;8.63;;;-1.10;99.90;;;;;;4975284;28;20455;-45
2022/03/08 05:17:05;;;;;;;14.05;8.07;;;-1.20;99.90;;;;;;4974904;28;20062;-45
2022/03/08 05:19:31;;;;;;;9.55;7.47;;;-1.20;99.90;;;;;;4983358;28;20061;-45
2022/03/08 05:21:56;;;;;;;10.45;7.70;;;-1.20;99.90;;;;;;4994552;28;20034;-47
2022/03/08 05:24:22;;;;;;;12.68;8.13;;;-1.20;99.90;;;;;;4992614;28;20030;-43
2022/03/08 05:26:47;;;;;;;12.30;8.60;;;-1.20;99.90;;;;;;4994327;28;20034;-42
2022/03/08 05:29:13;;;;;;;11.73;8.50;;;-1.20;99.90;;;;;;4994131;28;20026;-43
2022/03/08 05:31:39;;;;;;;14.77;7.93;;;-1.20;99.90;;;;;;4994456;28;20022;-44
2022/03/08 05:34:04;;;;;;;12.20;7.82;;;-1.30;99.90;;;;;;4994107;28;20026;-39
2022/03/08 05:36:30;;;;;;;11.98;9.02;;;-1.30;99.90;;;;;;4994182;28;20022;-43
2022/03/08 05:38:55;;;;;;;12.45;8.13;;;-1.30;99.90;;;;;;4974162;28;20102;-43
2022/03/08 05:41:21;;;;;;;10.93;7.55;;;-1.30;99.90;;;;;;4974609;28;20027;-43
2022/03/08 05:43:47;;;;;;;10.88;7.85;;;-1.30;99.90;;;;;;4974514;28;20041;-43
2022/03/08 05:46:12;;;;;;;12.65;7.68;;;-1.30;99.90;;;;;;4974498;28;20482;-43
2022/03/08 05:48:38;;;;;;;10.73;8.18;;;-1.30;99.90;;;;;;4974437;28;20031;-44
2022/03/08 05:51:04;;;;;;;15.07;8.60;;;-1.30;99.90;;;;;;4974444;28;20088;-39
2022/03/08 05:53:30;;;;;;;11.93;7.82;;;-1.20;99.90;;;;;;4993054;28;20038;-42
2022/03/08 05:55:55;;;;;;;10.52;7.63;;;-1.30;99.90;;;;;;4992391;28;20113;-44
2022/03/08 05:58:21;;;;;;;12.25;8.15;;;-1.20;99.90;;;;;;4993633;28;20105;-43
2022/03/08 06:00:46;;;;;;;12.45;7.65;;;-1.30;99.90;;;;;;4992602;28;20350;-43
2022/03/08 06:03:12;;;;;;;12.10;8.35;;;-1.30;99.90;;;;;;4993549;28;20030;-40
2022/03/08 06:05:38;;;;;;;11.57;7.70;;;-1.30;99.90;;;;;;4993638;28;20109;-43
2022/03/08 06:08:04;;;;;;;14.13;7.88;;;-1.30;99.90;;;;;;4993465;28;20030;-42
2022/03/08 06:10:30;;;;;;;9.88;7.07;;;-1.20;99.90;;;;;;4993507;28;20355;-40
2022/03/08 06:12:56;;;;;;;12.50;8.15;;;-1.20;99.90;;;;;;4976858;28;20057;-44
2022/03/08 06:15:21;;;;;;;11.73;8.32;;;-1.20;99.90;;;;;;4972763;28;20050;-46
2022/03/08 06:17:47;;;;;;;13.77;8.38;;;-1.20;99.90;;;;;;4973875;28;20023;-42
2022/03/08 06:20:14;;;;;;;14.10;9.00;;;-1.20;99.90;;;;;;4974082;28;20074;-47
2022/03/08 06:22:40;;;;;;;12.05;8.35;;;-1.10;99.90;;;;;;4974249;28;20051;-41
2022/03/08 06:25:06;;;;;;;10.30;7.60;;;-1.00;99.90;;;;;;4974355;28;20049;-43
2022/03/08 06:27:32;;;;;;;10.80;7.93;;;-1.00;99.90;;;;;;5014084;23;20485;-47
2022/03/08 06:29:58;;;;;;;11.52;8.00;;;-0.90;99.90;;;;;;4990137;28;20030;-44
2022/03/08 06:32:24;;;;;;;12.85;8.48;;;-0.70;99.90;;;;;;4993077;28;20026;-46
2022/03/08 06:34:51;;;;;;;10.00;8.15;;;-0.60;99.90;;;;;;4992320;28;20096;-48
2022/03/08 06:37:17;;;;;;;13.80;8.57;;;-0.40;99.90;;;;;;4992800;28;20023;-48
2022/03/08 06:39:43;;;;;;;11.70;7.80;;;-0.10;99.90;;;;;;4992414;28;20101;-45
2022/03/08 06:42:08;;;;;;;13.07;9.00;;;0.10;99.90;;;;;;4991540;28;20117;-49
2022/03/08 06:44:35;;;;;;;11.00;7.63;;;0.10;99.90;;;;;;4992795;28;20034;-45
2022/03/08 06:47:00;;;;;;;10.73;7.75;;;0.20;99.90;;;;;;4992464;28;20402;-47
2022/03/08 06:49:26;;;;;;;13.40;8.23;;;0.30;99.90;;;;;;4991085;28;20032;-47
2022/03/08 06:51:51;;;;;;;13.23;7.57;;;0.40;99.90;;;;;;4992847;28;20097;-49
2022/03/08 06:54:17;;;;;;;9.55;7.65;;;0.50;99.90;;;;;;4992547;28;20022;-46
2022/03/08 06:56:43;;;;;;;11.43;7.95;;;0.70;99.90;;;;;;4992754;28;20054;-48
2022/03/08 06:59:08;;;;;;;13.68;8.40;;;0.90;99.20;;;;;;4992420;28;20022;-47
2022/03/08 07:01:34;;;;;;;11.38;7.80;;;0.90;99.10;;;;;;4992407;28;20372;-46
2022/03/08 07:03:59;;;;;;;13.77;7.78;;;1.10;98.70;;;;;;4991314;28;20045;-46
2022/03/08 07:06:25;;;;;;;14.00;7.65;;;1.30;98.30;;;;;;4992519;28;20034;-49
2022/03/08 07:08:51;;;;;;;17.10;8.35;;;1.80;97.80;;;;;;4992496;28;20045;-46
2022/03/08 07:11:17;;;;;;;11.38;7.18;;;2.10;96.60;;;;;;4992056;28;20030;-46
2022/03/08 07:13:43;;;;;;;10.88;7.43;;;2.50;95.30;;;;;;4992127;28;20030;-49
2022/03/08 07:16:09;;;;;;;10.20;7.75;;;2.80;94.80;;;;;;4992322;28;20032;-46
2022/03/08 07:18:34;;;;;;;10.95;7.32;;;3.10;94.00;;;;;;4992463;28;20037;-47
2022/03/08 07:21:02;;;;;;;12.57;7.82;;;3.30;93.20;;;;;;4992546;28;20035;-46
2022/03/08 07:23:27;;;;;;;10.23;7.07;;;3.70;92.20;;;;;;4991984;28;20481;-48
2022/03/08 07:25:53;;;;;;;12.57;8.35;;;4.40;91.20;;;;;;4991356;28;20022;-48
2022/03/08 07:28:18;;;;;;;12.15;7.03;;;4.90;88.50;;;;;;4991955;28;20026;-46
2022/03/08 07:30:44;;;;;;;7.70;6.63;;;5.20;86.50;;;;;;4991826;28;20030;-48
2022/03/08 07:33:09;;;;;;;14.77;7.70;;;5.40;84.60;;;;;;4987300;28;20031;-46
2022/03/08 07:35:35;;;;;;;12.00;8.40;;;6.00;84.60;;;;;;4991607;28;20514;-42
2022/03/08 07:38:00;;;;;;;8.52;6.95;;;6.50;80.40;;;;;;4991394;28;20065;-47
2022/03/08 07:40:26;;;;;;;9.40;7.25;;;6.50;78.90;;;;;;4991946;28;20026;-44
2022/03/08 07:42:51;;;;;;;9.90;8.27;;;6.50;79.10;;;;;;4992247;28;20152;-44
2022/03/08 07:45:17;;;;;;;10.35;7.95;;;6.90;78.80;;;;;;4987475;28;20040;-44
2022/03/08 07:47:42;;;;;;;10.80;8.10;;;7.60;76.10;;;;;;4991383;28;20034;-47
2022/03/08 07:50:08;;;;;;;10.27;7.82;;;6.80;75.20;;;;;;4987898;28;20022;-44
2022/03/08 07:52:34;;;;;;;7.40;6.63;;;5.70;78.60;;;;;;4991572;28;20022;-46
2022/03/08 07:54:59;;;;;;;10.25;7.53;;;4.70;82.90;;;;;;4987911;28;20036;-43
2022/03/08 07:57:25;;;;;;;13.63;8.55;;;4.00;84.90;;;;;;4990280;28;20034;-49
2022/03/08 07:59:50;;;;;;;13.18;9.25;;;3.50;87.70;;;;;;4991411;28;20048;-46
2022/03/08 08:02:16;;;;;;;13.35;8.50;;;3.00;89.80;;;;;;4994784;28;20046;-45
2022/03/08 08:04:41;;;;;;;18.25;8.63;;;2.70;90.80;;;;;;4995502;28;20057;-44
2022/03/08 08:07:07;;;;;;;12.48;8.95;;;2.60;91.30;;;;;;4995799;28;20026;-44
2022/03/08 08:09:33;;;;;;;13.32;8.13;;;2.40;92.00;;;;;;4995400;28;20030;-44
2022/03/08 08:11:59;;;;;;;14.07;9.63;;;2.30;92.20;;;;;;4996150;28;20030;-44
2022/03/08 08:14:24;;;;;;;12.40;8.85;;;2.30;92.40;;;;;;4994947;28;20026;-45
2022/03/08 08:16:50;;;;;;;11.02;8.52;;;2.40;92.80;;;;;;4995751;28;20030;-44
2022/03/08 08:19:16;;;;;;;13.27;9.50;;;2.30;92.80;;;;;;4995571;28;20025;-47
2022/03/08 08:21:42;;;;;;;11.35;8.10;;;2.30;93.20;;;;;;4995428;28;20033;-44
2022/03/08 08:24:07;;;;;;;15.82;9.60;;;2.20;93.20;;;;;;4995391;28;20409;-44
2022/03/08 08:26:33;;;;;;;13.15;9.10;;;2.30;93.50;;;;;;4994168;28;20029;-43
2022/03/08 08:28:58;;;;;;;12.90;9.57;;;2.40;93.30;;;;;;4994974;28;20092;-45
2022/03/08 08:31:24;;;;;;;13.35;9.30;;;2.30;92.90;;;;;;4995304;28;20109;-44
2022/03/08 08:33:50;;;;;;;10.75;8.60;;;2.40;93.00;;;;;;4995223;28;20023;-44
2022/03/08 08:36:16;;;;;;;16.50;9.23;;;2.40;92.90;;;;;;4995120;28;20022;-44
2022/03/08 08:38:42;;;;;;;13.60;9.85;;;2.40;93.70;;;;;;4995155;28;20037;-44
2022/03/08 08:41:08;;;;;;;12.48;8.60;;;2.50;92.70;;;;;;4993778;28;20028;-44
2022/03/08 08:43:34;;;;;;;13.90;8.73;;;2.60;92.70;;;;;;4994613;28;20034;-44
2022/03/08 08:45:59;;;;;;;12.20;8.80;;;2.60;92.40;;;;;;4995052;28;20030;-45
2022/03/08 08:48:26;;;;;;;11.60;8.85;;;2.60;92.50;;;;;;4994929;28;20101;-44
2022/03/08 08:50:52;;;;;;;13.80;9.50;;;2.80;92.60;;;;;;4994951;28;20026;-44
2022/03/08 08:53:18;;;;;;;10.15;8.68;;;2.70;92.80;;;;;;4993453;28;20463;-45
2022/03/08 08:55:44;;;;;;;13.25;8.50;;;2.70;92.40;;;;;;4995164;28;20045;-44
2022/03/08 08:58:09;;;;;;;15.18;9.80;;;2.80;92.60;;;;;;4994757;28;20109;-44
2022/03/08 09:00:35;;;;;;;10.70;8.45;;;2.90;93.10;;;;;;4994724;28;20062;-44
2022/03/08 09:03:03;;;;;;;16.60;8.82;;;3.00;92.50;;;;;;4994619;28;20030;-44
2022/03/08 09:05:29;;;;;;;13.57;9.20;;;3.10;92.30;;;;;;4994709;28;20041;-43
2022/03/08 09:07:55;;;;;;;12.55;9.23;;;3.10;92.10;;;;;;4994579;28;20420;-45
2022/03/08 09:10:23;;;;;;;16.08;8.82;;;3.20;92.20;;;;;;4993416;28;20030;-45
2022/03/08 09:12:51;;;;;;;12.45;9.40;;;3.20;91.80;;;;;;4992499;28;20486;-42
2022/03/08 09:15:17;;;;;;;17.05;8.90;;;3.30;91.80;;;;;;4993352;28;20095;-45
2022/03/08 09:17:43;;;;;;;14.63;9.77;;;3.40;91.90;;;;;;4993601;28;20417;-42
2022/03/08 09:20:09;;;;;;;13.85;8.80;;;3.50;92.20;;;;;;4993936;28;20026;-45
2022/03/08 09:22:35;;;;;;;11.00;8.98;;;3.70;91.60;;;;;;4993814;28;20556;-46
2022/03/08 09:25:01;;;;;;;9.95;7.82;;;4.10;90.70;;;;;;4994130;28;20101;-46
2022/03/08 09:27:27;;;;;;;9.45;7.50;;;5.10;87.40;;;;;;4994519;28;20550;-45
2022/03/08 09:29:52;;;;;;;10.18;8.02;;;6.10;82.50;;;;;;4993930;28;20482;-49
2022/03/08 09:32:17;;;;;;;12.50;7.55;;;7.00;80.20;;;;;;4994718;28;20109;-44
2022/03/08 09:34:43;;;;;;;11.23;8.50;;;7.70;75.80;;;;;;4993703;28;20026;-44
2022/03/08 09:37:09;;;;;;;10.88;8.23;;;7.80;74.90;;;;;;4993835;28;20073;-49
2022/03/08 09:39:35;;;;;;;11.98;8.38;;;8.20;73.20;;;;;;4993924;28;20030;-47
2022/03/08 09:42:01;;;;;;;11.25;8.25;;;8.80;71.60;;;;;;4989954;28;20490;-47
2022/03/08 09:44:28;;;;;;;8.63;7.60;;;8.90;70.20;;;;;;4992177;28;20128;-45
2022/03/08 09:46:54;;;;;;;8.32;7.32;;;9.00;70.40;;;;;;4993338;28;20033;-45
2022/03/08 09:49:19;;;;;;;11.43;8.30;;;9.40;69.80;;;;;;4985124;28;20035;-47
2022/03/08 09:51:46;;;;;;;9.85;8.00;;;9.50;67.70;;;;;;4974608;28;20030;-47
2022/03/08 09:54:11;;;;;;;10.57;7.38;;;9.30;68.00;;;;;;4988437;28;20486;-47
2022/03/08 09:56:37;;;;;;;10.68;7.45;;;9.60;68.20;;;;;;4992220;28;20038;-49
2022/03/08 09:59:03;;;;;;;11.10;7.47;;;9.80;66.30;;;;;;4993494;28;20033;-46
2022/03/08 10:01:29;;;;;;;7.97;7.07;;;9.70;66.40;;;;;;4993538;28;20034;-47
2022/03/08 10:03:54;;;;;;;9.55;7.45;;;9.40;67.30;;;;;;4993192;28;20025;-45
2022/03/08 10:06:20;;;;;;;13.57;8.10;;;9.30;67.30;;;;;;4992338;28;20092;-45
2022/03/08 10:08:46;;;;;;;11.15;8.55;;;8.90;68.30;;;;;;4993432;28;20093;-46
2022/03/08 10:11:14;;;;;;;10.45;8.38;;;8.60;69.40;;;;;;4993515;28;20054;-45
2022/03/08 10:13:43;;;;;;;12.88;7.68;;;8.60;69.60;;;;;;4993186;28;20026;-43
2022/03/08 10:16:24;;;;;;;13.70;7.13;;;8.40;69.10;;;;;;4993545;28;20512;-45
2022/03/08 10:18:55;;;;;;;14.15;7.15;;;8.40;69.10;;;;;;4992833;28;20042;-48
2022/03/08 10:21:30;;;;;;;10.35;7.32;;;8.30;69.50;;;;;;4991652;28;20034;-45
2022/03/08 10:23:58;;;;;;;10.82;7.25;;;8.40;69.00;;;;;;4991242;28;20248;-44
2022/03/08 10:26:24;;;;;;;8.40;7.18;;;8.20;68.80;;;;;;4993240;28;20035;-45
2022/03/08 10:28:53;;;;;;;8.90;5.57;;;8.20;68.80;;;;;;4988626;28;20410;-45
2022/03/08 10:31:19;;;;;;;8.93;5.70;;;8.30;66.60;;;;;;4992361;28;20026;-45
2022/03/08 10:33:45;;;;;;;11.23;5.60;;;8.40;66.20;;;;;;4990952;28;20026;-46
2022/03/08 10:36:25;;;;;;;6.43;5.20;;;8.40;65.30;;;;;;4992684;28;20556;-46
2022/03/08 10:39:02;;;;;;;6.53;5.45;;;8.20;65.20;;;;;;4992744;28;20034;-45
2022/03/08 10:41:28;;;;;;;17.33;9.55;;;8.20;64.70;;;;;;4992706;28;20058;-49
2022/03/08 10:43:56;;;;;;;7.55;5.63;;;8.10;64.40;;;;;;4992574;28;20076;-47
2022/03/08 10:46:21;;;;;;;15.50;5.85;;;8.20;64.80;;;;;;4991546;28;20060;-48
2022/03/08 10:48:47;;;;;;;7.70;5.22;;;8.40;64.80;;;;;;4992393;28;20026;-45
2022/03/08 10:51:14;;;;;;;5.10;4.60;;;8.30;64.10;;;;;;4992828;28;20033;-45
2022/03/08 10:53:43;;;;;;;6.63;5.45;;;8.40;63.90;;;;;;4992463;28;20026;-44
2022/03/08 10:56:11;;;;;;;5.18;4.70;;;8.40;64.00;;;;;;4992469;28;20105;-46
2022/03/08 10:58:50;;;;;;;7.00;4.68;;;8.40;63.00;;;;;;4992756;28;20057;-47
2022/03/08 11:01:16;;;;;;;7.32;5.53;;;8.20;62.90;;;;;;4992551;28;20049;-46
2022/03/08 11:03:58;;;;;;;8.77;5.32;;;8.30;63.90;;;;;;4990966;28;20034;-45
2022/03/08 11:06:24;;;;;;;5.30;4.55;;;8.30;62.90;;;;;;4992345;28;20031;-47
2022/03/08 11:08:52;;;;;;;7.55;4.68;;;8.30;63.20;;;;;;4992153;28;20034;-46
2022/03/08 11:11:20;;;;;;;6.03;4.47;;;8.50;63.50;;;;;;4992341;28;20022;-46
2022/03/08 11:13:51;;;;;;;5.95;5.05;;;8.60;62.40;;;;;;4992136;28;20026;-46
2022/03/08 11:16:17;;;;;;;6.00;4.97;;;8.50;62.60;;;;;;4992895;28;20374;-45
2022/03/08 11:18:49;;;;;;;6.95;4.70;;;8.30;62.40;;;;;;4992417;28;20022;-45
2022/03/08 11:21:19;;;;;;;6.18;4.75;;;8.10;62.00;;;;;;4992052;28;20026;-48
2022/03/08 11:23:45;;;;;;;14.55;6.18;;;8.10;62.10;;;;;;4990680;28;20026;-45
2022/03/08 11:26:15;;;;;;;6.82;5.28;;;8.00;63.40;;;;;;4992295;28;20082;-46
2022/03/08 11:28:44;;;;;;;8.40;4.80;;;8.00;62.80;;;;;;4991939;28;20073;-45
2022/03/08 11:31:10;;;;;;;18.25;5.70;;;8.00;61.30;;;;;;4992286;28;20050;-50
2022/03/08 11:34:12;;;;;;;5.65;5.05;;;8.00;62.10;;;;;;4991936;28;20494;-50
2022/03/08 11:37:09;;;;;;;8.82;4.68;;;8.10;63.00;;;;;;4979894;28;20498;-43
2022/03/08 11:39:39;;;;;;;6.32;4.68;;;8.10;62.10;;;;;;4990696;28;20121;-45
2022/03/08 11:42:16;;;;;;;7.75;4.97;;;8.20;63.00;;;;;;4991492;28;20110;-46
2022/03/08 11:45:02;;;;;;;4.90;4.50;;;8.10;63.00;;;;;;4989954;28;20113;-44
2022/03/08 11:48:03;;;;;;;5.18;4.57;;;8.20;62.90;;;;;;4990295;28;20501;-46
2022/03/08 11:50:29;;;;;;;12.10;4.88;;;8.20;62.60;;;;;;4991438;28;20034;-46
2022/03/08 11:53:06;;;;;;;6.45;4.63;;;8.10;62.70;;;;;;4991431;28;20508;-45
2022/03/08 11:55:50;;;;;;;6.28;4.82;;;8.10;62.50;;;;;;4991523;28;20089;-45
2022/03/08 11:58:20;;;;;;;9.15;4.55;;;8.20;62.40;;;;;;4992299;28;20085;-46
2022/03/08 12:00:53;;;;;;;7.40;4.60;;;8.20;62.30;;;;;;4990907;28;20027;-44
2022/03/08 12:03:22;;;;;;;5.50;4.47;;;8.20;62.00;;;;;;4990278;28;20149;-45
2022/03/08 12:06:12;;;;;;;7.22;5.15;;;8.10;62.20;;;;;;4991591;28;20026;-45
2022/03/08 12:08:42;;;;;;;8.52;6.35;;;8.10;62.50;;;;;;4990433;28;20041;-46
2022/03/08 12:11:25;;;;;;;8.93;4.63;;;8.20;62.80;;;;;;4991845;28;20121;-47
2022/03/08 12:14:08;;;;;;;8.32;4.65;;;8.30;62.50;;;;;;4991637;28;20397;-45
2022/03/08 12:16:34;;;;;;;7.45;4.53;;;8.30;61.50;;;;;;4991715;28;20521;-45
2022/03/08 12:19:02;;;;;;;10.77;5.95;;;8.30;61.20;;;;;;4991944;28;20038;-46
2022/03/08 12:21:30;;;;;;;6.65;4.60;;;8.20;61.60;;;;;;4991560;28;20121;-46
2022/03/08 12:23:58;;;;;;;6.03;5.38;;;8.30;62.10;;;;;;4990540;28;20474;-45
2022/03/08 12:26:37;;;;;;;6.22;4.40;;;8.30;61.30;;;;;;4991629;28;20026;-47
2022/03/08 12:29:13;;;;;;;8.40;5.57;;;8.30;61.50;;;;;;4991302;28;20397;-45
2022/03/08 12:32:05;;;;;;;9.70;5.03;;;8.30;61.20;;;;;;4990414;28;20022;-45
2022/03/08 12:34:45;;;;;;;6.20;4.93;;;8.30;61.40;;;;;;4991075;28;20483;-44
2022/03/08 12:37:24;;;;;;;6.45;5.65;;;8.40;62.10;;;;;;4991747;28;20038;-44
2022/03/08 12:39:51;;;;;;;8.80;5.15;;;8.40;62.50;;;;;;4991429;28;20050;-47
2022/03/08 12:42:26;;;;;;;8.18;6.00;;;8.50;63.00;;;;;;4991853;28;20057;-48
2022/03/08 12:45:00;;;;;;;9.75;5.60;;;8.60;62.80;;;;;;4991336;28;20105;-44